Calumet, Michigan
Current Conditions -  °F | °C
As of 11:53 AM on Saturday 22 Nov 2014 (Local Time) from KCMX Reporting Station
Overcast Overcast  
Wind Chill: 25°   Ceiling: 1300
Heat Index: 35°   Visibility: 7mi
Dew Point: 28°   Wind: 17mph
Humidity: 76%   Direction: 250°WSW
Pressure: 29.67"   Gusts: NA
Location:  47.25°N, 88.45°W
Report Text: KCMX 221653Z AUTO 25015KT 7SM OVC013 02/M02 A2967 RMK AO2 SLP058 T00171022
Loading
Personal Weather Stations






























Interactive Weather Map New forecast layout! Learn more

10-Day Weather Forecast

Advertisements
Track Severe Weather on mobile